Time;durP1;ratioP1;P1;durP2;ratioP2;P2;SDS_P1;SDS_P2;PMS_P1;PMS_P2;Temp;Humidity;BMP_temperature;BMP_pressure;BME280_temperature;BME280_humidity;BME280_pressure;Samples;Min_cycle;Max_cycle;Signal;HPM_P1;HPM_P2
2023/12/02 00:01:29;;;;;;;59.50;20.93;;;-3.70;99.90;;;;;;5011042;28;20210;-54
2023/12/02 00:03:57;;;;;;;52.63;20.40;;;-3.70;99.90;;;;;;5014966;28;20220;-52
2023/12/02 00:06:26;;;;;;;55.67;20.33;;;-3.70;99.90;;;;;;5014750;28;20260;-53
2023/12/02 00:08:54;;;;;;;53.27;20.30;;;-3.80;99.90;;;;;;5014390;28;20225;-50
2023/12/02 00:11:22;;;;;;;58.50;18.97;;;-3.80;99.90;;;;;;5012659;28;20257;-53
2023/12/02 00:13:52;;;;;;;55.30;21.43;;;-3.80;99.90;;;;;;5012885;28;20229;-52
2023/12/02 00:16:20;;;;;;;55.90;20.57;;;-3.80;99.90;;;;;;5012307;28;20552;-55
2023/12/02 00:18:49;;;;;;;55.57;20.93;;;-3.90;99.90;;;;;;5013461;28;20222;-50
2023/12/02 00:21:18;;;;;;;58.63;19.53;;;-3.90;99.90;;;;;;5014592;28;20226;-53
2023/12/02 00:23:46;;;;;;;56.87;19.70;;;-3.90;99.90;;;;;;5012386;28;20296;-54
2023/12/02 00:26:14;;;;;;;55.70;19.80;;;-3.90;99.90;;;;;;5013627;28;20217;-55
2023/12/02 00:28:43;;;;;;;59.30;20.50;;;-4.00;99.90;;;;;;5006200;28;20241;-53
2023/12/02 00:31:12;;;;;;;60.13;19.37;;;-4.00;99.90;;;;;;5009378;28;20226;-53
2023/12/02 00:33:40;;;;;;;61.60;19.63;;;-4.00;99.90;;;;;;5012235;28;20233;-54
2023/12/02 00:36:10;;;;;;;52.57;19.87;;;-4.00;99.90;;;;;;5014152;28;20716;-55
2023/12/02 00:38:38;;;;;;;54.33;20.07;;;-4.00;99.90;;;;;;5013631;28;20830;-53
2023/12/02 00:41:09;;;;;;;62.80;20.83;;;-4.00;99.90;;;;;;5009908;28;20745;-53
2023/12/02 00:43:38;;;;;;;56.90;20.10;;;-4.00;99.90;;;;;;5013578;28;20190;-54
2023/12/02 00:46:07;;;;;;;53.13;20.30;;;-4.10;99.90;;;;;;4985527;28;20257;-51
2023/12/02 00:48:36;;;;;;;58.77;20.40;;;-4.10;99.90;;;;;;5011452;28;20228;-55
2023/12/02 00:51:06;;;;;;;54.67;18.83;;;-4.10;99.90;;;;;;5011291;28;20574;-53
2023/12/02 00:53:35;;;;;;;53.80;19.40;;;-4.20;99.90;;;;;;5011805;28;20316;-53
2023/12/02 00:56:03;;;;;;;59.23;19.07;;;-4.20;99.90;;;;;;5008820;28;20198;-52
2023/12/02 00:58:31;;;;;;;67.87;22.07;;;-4.20;99.90;;;;;;5013173;28;20603;-54
2023/12/02 01:01:09;;;;;;;68.03;22.10;;;-4.20;99.90;;;;;;5012630;28;20272;-54
2023/12/02 01:03:38;;;;;;;68.93;21.93;;;-4.20;99.90;;;;;;5009938;28;20218;-55
2023/12/02 01:06:07;;;;;;;60.73;21.90;;;-4.10;99.90;;;;;;5013162;28;20284;-56
2023/12/02 01:08:35;;;;;;;63.97;21.77;;;-4.10;99.90;;;;;;5010027;28;20222;-53
2023/12/02 01:11:04;;;;;;;64.30;22.67;;;-4.10;99.90;;;;;;5010756;28;20198;-51
2023/12/02 01:13:32;;;;;;;68.93;21.77;;;-4.10;99.90;;;;;;4997471;28;20190;-50
2023/12/02 01:16:00;;;;;;;70.37;22.23;;;-4.00;99.90;;;;;;5012462;28;20226;-50
2023/12/02 01:18:28;;;;;;;57.67;20.90;;;-3.90;99.90;;;;;;5012282;28;20218;-51
2023/12/02 01:20:58;;;;;;;65.30;21.83;;;-3.90;99.90;;;;;;5008340;28;20757;-53
2023/12/02 01:23:26;;;;;;;58.27;21.20;;;-3.80;99.90;;;;;;5009970;28;20317;-54
2023/12/02 01:25:55;;;;;;;65.57;21.57;;;-3.80;99.90;;;;;;5014112;28;20194;-51
2023/12/02 01:28:23;;;;;;;65.73;22.20;;;-3.80;99.90;;;;;;5010867;28;20674;-51
2023/12/02 01:30:51;;;;;;;72.70;22.20;;;-3.80;99.90;;;;;;5012458;28;20218;-51
2023/12/02 01:33:19;;;;;;;60.20;21.33;;;-3.70;99.90;;;;;;5011393;28;20217;-51
2023/12/02 01:35:49;;;;;;;65.37;21.30;;;-3.80;99.90;;;;;;4996098;28;20249;-53
2023/12/02 01:38:19;;;;;;;66.53;21.53;;;-3.80;99.90;;;;;;5013310;28;20232;-53
2023/12/02 01:40:47;;;;;;;58.73;19.63;;;-3.80;99.90;;;;;;5013248;28;20715;-54
2023/12/02 01:43:25;;;;;;;64.77;20.93;;;-3.70;99.90;;;;;;5012320;28;20232;-54
2023/12/02 01:45:55;;;;;;;66.60;21.17;;;-3.70;99.90;;;;;;5010799;28;20238;-53
2023/12/02 01:48:26;;;;;;;69.27;21.33;;;-3.60;99.90;;;;;;4994558;28;20688;-54
2023/12/02 01:50:55;;;;;;;61.50;22.57;;;-3.50;99.90;;;;;;5011289;28;20268;-53
2023/12/02 01:53:25;;;;;;;64.97;21.33;;;-3.50;99.90;;;;;;5013095;28;20301;-54
2023/12/02 01:55:53;;;;;;;73.43;22.53;;;-3.50;99.90;;;;;;5012103;28;20194;-54
2023/12/02 01:58:22;;;;;;;62.10;21.37;;;-3.50;99.90;;;;;;5012769;28;20256;-55
2023/12/02 02:00:50;;;;;;;62.03;21.03;;;-3.40;99.90;;;;;;5012537;28;20232;-51
2023/12/02 02:03:18;;;;;;;61.27;21.00;;;-3.50;99.90;;;;;;5012511;28;20692;-54
2023/12/02 02:05:47;;;;;;;60.00;21.13;;;-3.50;99.90;;;;;;5012128;28;20810;-51
2023/12/02 02:08:15;;;;;;;69.30;22.10;;;-3.50;99.90;;;;;;5012064;28;20304;-49
2023/12/02 02:10:48;;;;;;;61.17;21.47;;;-3.50;99.90;;;;;;5013694;28;20202;-54
2023/12/02 02:13:17;;;;;;;61.47;19.93;;;-3.50;99.90;;;;;;5012816;28;20656;-52
2023/12/02 02:15:46;;;;;;;57.97;19.63;;;-3.50;99.90;;;;;;5009506;28;20218;-53
2023/12/02 02:18:14;;;;;;;66.07;22.17;;;-3.60;99.90;;;;;;5011258;28;20240;-53
2023/12/02 02:20:42;;;;;;;66.33;21.53;;;-3.60;99.90;;;;;;5008827;28;20570;-53
2023/12/02 02:23:12;;;;;;;60.83;21.60;;;-3.50;99.90;;;;;;5010602;28;20229;-54
2023/12/02 02:25:42;;;;;;;63.13;20.90;;;-3.60;99.90;;;;;;5012968;28;20190;-54
2023/12/02 02:28:10;;;;;;;60.60;20.80;;;-3.50;99.90;;;;;;5013125;28;20260;-53
2023/12/02 02:30:39;;;;;;;69.43;19.97;;;-3.50;99.90;;;;;;5007270;28;20218;-52
2023/12/02 02:33:07;;;;;;;67.17;21.93;;;-3.50;99.90;;;;;;5012061;28;20299;-53
2023/12/02 02:35:35;;;;;;;60.33;20.43;;;-3.50;99.90;;;;;;5013992;28;20222;-53
2023/12/02 02:38:03;;;;;;;58.60;21.50;;;-3.50;99.90;;;;;;5011556;28;20292;-53
2023/12/02 02:40:33;;;;;;;70.90;21.73;;;-3.50;99.90;;;;;;5010441;28;20205;-50
2023/12/02 02:43:02;;;;;;;63.83;21.47;;;-3.50;99.90;;;;;;5007049;28;20229;-53
2023/12/02 02:45:30;;;;;;;62.07;21.67;;;-3.60;99.90;;;;;;5007187;28;20234;-52
2023/12/02 02:47:58;;;;;;;58.67;21.00;;;-3.50;99.90;;;;;;5008984;28;20256;-55
2023/12/02 02:50:27;;;;;;;60.43;20.87;;;-3.60;99.90;;;;;;5011226;28;20321;-55
2023/12/02 02:52:55;;;;;;;63.90;20.60;;;-3.50;99.90;;;;;;5009533;28;20182;-54
2023/12/02 02:55:24;;;;;;;61.33;20.90;;;-3.50;99.90;;;;;;5010959;28;20194;-55
2023/12/02 02:57:53;;;;;;;65.17;21.57;;;-3.50;99.90;;;;;;5008882;28;20234;-55
2023/12/02 03:00:23;;;;;;;60.67;21.00;;;-3.40;99.90;;;;;;5010099;28;20221;-53
2023/12/02 03:02:51;;;;;;;58.23;20.90;;;-3.40;99.90;;;;;;5010896;28;20253;-55
2023/12/02 03:05:19;;;;;;;57.07;19.83;;;-3.40;99.90;;;;;;5011287;28;20236;-52
2023/12/02 03:07:47;;;;;;;57.37;20.50;;;-3.30;99.90;;;;;;5004836;28;20195;-55
2023/12/02 03:10:16;;;;;;;64.40;21.40;;;-3.30;99.90;;;;;;5008747;28;20570;-52
2023/12/02 03:12:45;;;;;;;65.10;21.07;;;-3.20;99.90;;;;;;5009550;28;20218;-55
2023/12/02 03:15:15;;;;;;;72.63;25.50;;;-3.20;99.90;;;;;;5009987;28;20437;-53
2023/12/02 03:17:43;;;;;;;69.27;24.20;;;-3.10;99.90;;;;;;5009455;28;20249;-55
2023/12/02 03:20:12;;;;;;;71.47;22.17;;;-3.10;99.90;;;;;;5011689;28;20228;-55
2023/12/02 03:22:40;;;;;;;63.40;20.20;;;-3.10;99.90;;;;;;5009769;28;20214;-56
2023/12/02 03:25:09;;;;;;;61.90;21.17;;;-3.00;99.90;;;;;;5007683;28;20224;-55
2023/12/02 03:27:37;;;;;;;63.03;20.47;;;-3.00;99.90;;;;;;5008368;28;20218;-55
2023/12/02 03:30:06;;;;;;;60.70;20.43;;;-3.00;99.90;;;;;;5011144;28;20268;-55
2023/12/02 03:32:39;;;;;;;57.70;20.17;;;-3.00;99.90;;;;;;5006943;28;20288;-55
2023/12/02 03:35:08;;;;;;;61.70;20.53;;;-2.90;99.90;;;;;;5009949;28;20229;-55
2023/12/02 03:37:38;;;;;;;62.57;20.37;;;-2.90;99.90;;;;;;5012663;28;20225;-53
2023/12/02 03:40:10;;;;;;;59.47;20.77;;;-2.90;99.90;;;;;;5007461;28;20230;-52
2023/12/02 03:42:38;;;;;;;63.30;21.00;;;-2.90;99.90;;;;;;4990317;28;20225;-54
2023/12/02 03:45:08;;;;;;;62.10;21.67;;;-2.90;99.90;;;;;;5006880;28;20225;-54
2023/12/02 03:47:38;;;;;;;65.07;21.50;;;-2.90;99.90;;;;;;4993154;28;20213;-53
2023/12/02 03:50:07;;;;;;;60.30;22.00;;;-2.80;99.90;;;;;;5007401;28;20256;-51
2023/12/02 03:52:37;;;;;;;74.03;23.03;;;-2.80;99.90;;;;;;5008858;28;20212;-53
2023/12/02 03:55:07;;;;;;;70.83;21.37;;;-2.80;99.90;;;;;;4991313;28;20584;-54
2023/12/02 03:57:35;;;;;;;64.20;22.67;;;-2.80;99.90;;;;;;5008166;28;20261;-54
2023/12/02 04:00:10;;;;;;;76.17;22.93;;;-2.80;99.90;;;;;;4989563;28;20225;-55
2023/12/02 04:02:41;;;;;;;74.10;24.07;;;-2.80;99.90;;;;;;5008774;28;20225;-56
2023/12/02 04:05:13;;;;;;;71.47;24.13;;;-2.80;99.90;;;;;;4992475;28;20641;-53
2023/12/02 04:07:42;;;;;;;71.73;23.43;;;-2.70;99.90;;;;;;5006771;28;20182;-53
2023/12/02 04:10:12;;;;;;;63.37;22.83;;;-2.70;99.90;;;;;;5010386;28;20221;-56
2023/12/02 04:12:41;;;;;;;68.47;22.63;;;-2.70;99.90;;;;;;5010749;28;20288;-56
2023/12/02 04:15:10;;;;;;;70.43;23.63;;;-2.70;99.90;;;;;;5009055;28;20218;-53
2023/12/02 04:17:38;;;;;;;70.80;24.13;;;-2.70;99.90;;;;;;5010489;28;20573;-54
2023/12/02 04:20:14;;;;;;;71.70;24.27;;;-2.60;99.90;;;;;;5008963;28;20225;-53
2023/12/02 04:22:43;;;;;;;68.23;23.00;;;-2.60;99.90;;;;;;5009905;28;20240;-53
2023/12/02 04:25:12;;;;;;;70.43;23.27;;;-2.60;99.90;;;;;;5008622;28;20696;-54
2023/12/02 04:27:41;;;;;;;59.37;23.00;;;-2.60;99.90;;;;;;5008522;28;20233;-53
2023/12/02 04:30:10;;;;;;;67.10;22.67;;;-2.60;99.90;;;;;;5009745;28;20229;-53
2023/12/02 04:32:38;;;;;;;70.27;23.70;;;-2.50;99.90;;;;;;5014532;28;20236;-54
2023/12/02 04:35:09;;;;;;;66.93;21.93;;;-2.60;99.90;;;;;;5016313;28;20190;-54
2023/12/02 04:37:41;;;;;;;68.80;22.00;;;-2.60;99.90;;;;;;5012296;28;20198;-52
2023/12/02 04:40:11;;;;;;;67.07;22.63;;;-2.50;99.90;;;;;;5013611;28;20745;-55
2023/12/02 04:42:40;;;;;;;65.10;22.27;;;-2.50;99.90;;;;;;5006969;28;20691;-54
2023/12/02 04:45:09;;;;;;;65.13;22.00;;;-2.50;99.90;;;;;;5008081;28;20592;-55
2023/12/02 04:47:38;;;;;;;68.30;21.80;;;-2.50;99.90;;;;;;5011426;28;20235;-53
2023/12/02 04:50:08;;;;;;;61.37;21.27;;;-2.50;99.90;;;;;;5013381;28;20202;-50
2023/12/02 04:52:36;;;;;;;60.03;20.63;;;-2.60;99.90;;;;;;5010013;28;20245;-54
2023/12/02 04:55:06;;;;;;;61.97;20.07;;;-2.60;99.90;;;;;;5013443;28;20491;-52
2023/12/02 04:57:34;;;;;;;53.93;21.03;;;-2.70;99.90;;;;;;5011833;28;20238;-52
2023/12/02 05:00:11;;;;;;;61.73;21.03;;;-2.80;99.90;;;;;;4994101;28;20218;-52
2023/12/02 05:02:42;;;;;;;57.63;19.97;;;-2.90;99.90;;;;;;5010615;28;20222;-51
2023/12/02 05:05:12;;;;;;;54.37;19.70;;;-2.90;99.90;;;;;;5014408;28;20229;-55
2023/12/02 05:07:41;;;;;;;58.40;20.93;;;-3.00;99.90;;;;;;5012846;28;20201;-53
2023/12/02 05:10:11;;;;;;;51.63;18.70;;;-3.10;99.90;;;;;;5013810;28;20253;-52
2023/12/02 05:12:39;;;;;;;58.17;20.33;;;-3.20;99.90;;;;;;5004525;28;20230;-53
2023/12/02 05:15:09;;;;;;;68.33;21.73;;;-3.20;99.90;;;;;;5010838;28;20232;-54
2023/12/02 05:17:37;;;;;;;58.03;19.57;;;-3.30;99.90;;;;;;5012901;28;20305;-54
2023/12/02 05:20:07;;;;;;;58.50;20.17;;;-3.30;99.90;;;;;;5009879;28;20229;-54
2023/12/02 05:22:37;;;;;;;59.87;21.10;;;-3.40;99.90;;;;;;5009466;28;20194;-54
2023/12/02 05:25:06;;;;;;;68.77;20.93;;;-3.40;99.90;;;;;;5013263;28;20229;-56
2023/12/02 05:27:34;;;;;;;66.10;22.10;;;-3.40;99.90;;;;;;5013344;28;20221;-54
2023/12/02 05:30:03;;;;;;;55.53;20.33;;;-3.40;99.90;;;;;;5011548;28;20245;-55
2023/12/02 05:32:31;;;;;;;67.27;21.03;;;-3.50;99.90;;;;;;5012814;28;20268;-54
2023/12/02 05:34:59;;;;;;;60.50;20.83;;;-3.50;99.90;;;;;;5011864;28;20202;-55
2023/12/02 05:37:28;;;;;;;57.10;19.97;;;-3.40;99.90;;;;;;5013028;28;20200;-55
2023/12/02 05:39:57;;;;;;;67.57;21.83;;;-3.40;99.90;;;;;;5011978;28;20226;-54
2023/12/02 05:42:25;;;;;;;59.03;20.13;;;-3.30;99.90;;;;;;5011246;28;20218;-54
2023/12/02 05:44:54;;;;;;;58.53;19.70;;;-3.30;99.90;;;;;;5010024;28;20264;-55
2023/12/02 05:47:25;;;;;;;75.28;28.42;;;-3.20;99.90;;;;;;5008605;28;20432;-55
2023/12/02 05:49:53;;;;;;;67.10;23.40;;;-3.20;99.90;;;;;;5009813;28;20186;-56
2023/12/02 05:52:22;;;;;;;72.67;22.87;;;-3.10;99.90;;;;;;5014030;28;20644;-55
2023/12/02 05:54:50;;;;;;;61.47;21.90;;;-3.00;99.90;;;;;;5013357;28;20701;-55
2023/12/02 05:57:19;;;;;;;62.73;22.10;;;-3.00;99.90;;;;;;5010786;28;20233;-50
2023/12/02 05:59:48;;;;;;;60.00;21.03;;;-3.00;99.90;;;;;;5010147;28;20227;-51
2023/12/02 06:02:16;;;;;;;59.80;21.67;;;-3.00;99.90;;;;;;5011884;28;20232;-53
2023/12/02 06:04:44;;;;;;;59.97;21.60;;;-3.00;99.90;;;;;;5009736;28;20206;-51
2023/12/02 06:07:12;;;;;;;58.27;21.50;;;-3.00;99.90;;;;;;5009224;28;20297;-54
2023/12/02 06:09:43;;;;;;;66.20;22.00;;;-3.00;99.90;;;;;;5011651;28;20942;-55
2023/12/02 06:12:12;;;;;;;61.50;21.00;;;-3.00;99.90;;;;;;5009537;28;20318;-55
2023/12/02 06:14:40;;;;;;;64.10;21.13;;;-3.00;99.90;;;;;;5007878;28;20222;-53
2023/12/02 06:17:08;;;;;;;63.13;20.93;;;-3.00;99.90;;;;;;5008879;28;20225;-51
2023/12/02 06:19:37;;;;;;;62.47;21.43;;;-3.00;99.90;;;;;;5013127;28;20197;-53
2023/12/02 06:22:05;;;;;;;63.40;21.33;;;-3.00;99.90;;;;;;5011610;28;20774;-52
2023/12/02 06:24:33;;;;;;;64.50;21.97;;;-3.00;99.90;;;;;;5007053;28;20221;-54
2023/12/02 06:27:02;;;;;;;59.97;21.20;;;-3.00;99.90;;;;;;4994951;28;20230;-53
2023/12/02 06:29:30;;;;;;;61.37;20.93;;;-3.00;99.90;;;;;;5007934;28;20271;-53
2023/12/02 06:32:01;;;;;;;65.47;21.33;;;-3.00;99.90;;;;;;4993224;28;20218;-54
2023/12/02 06:34:30;;;;;;;62.10;20.90;;;-3.00;99.90;;;;;;5012647;28;20191;-51
2023/12/02 06:36:58;;;;;;;64.83;21.97;;;-3.00;99.90;;;;;;5007416;28;20275;-54
2023/12/02 06:39:27;;;;;;;71.40;21.17;;;-3.00;99.90;;;;;;5010623;28;20218;-55
2023/12/02 06:41:56;;;;;;;69.83;23.07;;;-3.10;99.90;;;;;;5010572;28;20216;-53
2023/12/02 06:44:25;;;;;;;70.17;21.87;;;-3.10;99.90;;;;;;5005292;28;20218;-56
2023/12/02 06:46:54;;;;;;;68.97;23.10;;;-3.20;99.90;;;;;;5007145;28;20509;-52
2023/12/02 06:49:23;;;;;;;64.93;22.80;;;-3.20;99.90;;;;;;5009525;28;20186;-55
2023/12/02 06:51:52;;;;;;;73.97;24.40;;;-3.30;99.90;;;;;;5008432;28;20225;-55
2023/12/02 06:54:20;;;;;;;61.30;22.50;;;-3.40;99.90;;;;;;5010206;28;20221;-53
2023/12/02 06:56:48;;;;;;;71.30;24.13;;;-3.40;99.90;;;;;;5008025;28;20317;-55
2023/12/02 06:59:17;;;;;;;69.03;23.77;;;-3.40;99.90;;;;;;5005228;28;20579;-55
2023/12/02 07:01:47;;;;;;;70.47;23.60;;;-3.40;99.90;;;;;;5008680;28;20206;-51
2023/12/02 07:04:15;;;;;;;76.20;23.43;;;-3.40;99.90;;;;;;5007264;28;20224;-52
2023/12/02 07:06:45;;;;;;;76.47;23.37;;;-3.30;99.90;;;;;;5008943;28;20580;-54
2023/12/02 07:09:13;;;;;;;75.37;24.10;;;-3.30;99.90;;;;;;5008008;28;20703;-53
2023/12/02 07:11:41;;;;;;;70.37;24.33;;;-3.40;99.90;;;;;;5010449;28;20218;-54
2023/12/02 07:14:11;;;;;;;72.67;23.80;;;-3.40;99.90;;;;;;5005959;28;20226;-53
2023/12/02 07:16:40;;;;;;;72.13;24.17;;;-3.50;99.90;;;;;;5007394;28;20201;-54
2023/12/02 07:19:09;;;;;;;73.37;23.27;;;-3.50;99.90;;;;;;5007958;28;20229;-53
2023/12/02 07:21:38;;;;;;;73.93;25.00;;;-3.50;99.90;;;;;;5007511;28;20217;-55
2023/12/02 07:24:09;;;;;;;76.80;25.50;;;-3.50;99.90;;;;;;5010035;28;20648;-53
2023/12/02 07:26:38;;;;;;;86.47;25.40;;;-3.50;99.90;;;;;;5008717;28;20268;-54
2023/12/02 07:29:06;;;;;;;78.23;24.17;;;-3.60;99.90;;;;;;5007994;28;20233;-54
2023/12/02 07:31:34;;;;;;;73.73;25.07;;;-3.60;99.90;;;;;;5012177;28;20190;-54
2023/12/02 07:34:03;;;;;;;73.10;25.40;;;-3.60;99.90;;;;;;5009305;28;20210;-51
2023/12/02 07:36:31;;;;;;;83.73;24.13;;;-3.60;99.90;;;;;;5006190;28;20222;-55
2023/12/02 07:38:59;;;;;;;72.27;24.60;;;-3.70;99.90;;;;;;5006545;28;20214;-53
2023/12/02 07:41:29;;;;;;;84.33;26.13;;;-3.60;99.90;;;;;;5008773;28;20256;-54
2023/12/02 07:43:57;;;;;;;78.87;25.83;;;-3.60;99.90;;;;;;5009024;28;20202;-50
2023/12/02 07:46:25;;;;;;;81.27;25.43;;;-3.60;99.90;;;;;;5007341;28;20218;-55
2023/12/02 07:48:55;;;;;;;88.60;26.23;;;-3.60;99.90;;;;;;5010113;28;20280;-54
2023/12/02 07:51:23;;;;;;;83.00;26.50;;;-3.60;99.90;;;;;;5008428;28;20218;-54
2023/12/02 07:53:51;;;;;;;81.33;25.97;;;-3.60;99.90;;;;;;5008742;28;20313;-52
2023/12/02 07:56:20;;;;;;;84.63;25.53;;;-3.60;99.90;;;;;;5008625;28;20249;-54
2023/12/02 07:58:49;;;;;;;78.50;25.90;;;-3.60;99.90;;;;;;5006078;28;20533;-54
2023/12/02 08:01:18;;;;;;;81.50;25.63;;;-3.60;99.90;;;;;;5005960;28;20191;-54
2023/12/02 08:03:46;;;;;;;78.13;26.33;;;-3.60;99.90;;;;;;5005023;28;20600;-56
2023/12/02 08:06:14;;;;;;;75.77;25.63;;;-3.50;99.90;;;;;;5009584;28;20229;-54
2023/12/02 08:08:42;;;;;;;90.07;27.60;;;-3.50;99.90;;;;;;5009847;28;20699;-55
2023/12/02 08:11:10;;;;;;;90.67;27.73;;;-3.50;99.90;;;;;;5014348;28;20221;-55
2023/12/02 08:13:39;;;;;;;105.93;34.37;;;-3.50;99.90;;;;;;5013526;28;20950;-54
2023/12/02 08:16:09;;;;;;;101.00;32.80;;;-3.40;99.90;;;;;;5010875;28;20230;-55
2023/12/02 08:18:38;;;;;;;97.27;29.03;;;-3.40;99.90;;;;;;5011822;28;20210;-53
2023/12/02 08:21:07;;;;;;;91.17;28.87;;;-3.30;99.90;;;;;;5009767;28;20226;-50
2023/12/02 08:23:35;;;;;;;91.70;28.93;;;-3.30;99.90;;;;;;5015981;28;20218;-54
2023/12/02 08:26:03;;;;;;;84.93;28.13;;;-3.20;99.90;;;;;;5012014;28;20225;-52
2023/12/02 08:28:31;;;;;;;80.67;27.53;;;-3.20;99.90;;;;;;5014111;28;20194;-53
2023/12/02 08:31:00;;;;;;;100.10;30.43;;;-3.10;99.90;;;;;;5013009;28;20317;-50
2023/12/02 08:33:29;;;;;;;94.23;28.90;;;-3.10;99.90;;;;;;5012528;28;20229;-53
2023/12/02 08:35:57;;;;;;;97.07;30.30;;;-3.00;99.90;;;;;;5013785;28;20213;-55
2023/12/02 08:38:25;;;;;;;92.20;28.80;;;-2.90;99.90;;;;;;5010029;28;20241;-54
2023/12/02 08:40:54;;;;;;;91.33;28.50;;;-2.90;99.90;;;;;;5012338;28;20198;-51
2023/12/02 08:43:23;;;;;;;92.10;28.83;;;-2.80;99.90;;;;;;5011286;28;20229;-55
2023/12/02 08:45:51;;;;;;;81.67;28.63;;;-2.80;99.90;;;;;;5013333;28;20225;-53
2023/12/02 08:48:19;;;;;;;89.70;29.47;;;-2.70;99.90;;;;;;4995467;28;20210;-51
2023/12/02 08:50:49;;;;;;;82.07;28.60;;;-2.60;99.90;;;;;;5013419;28;20225;-53
2023/12/02 08:53:18;;;;;;;87.73;27.93;;;-2.60;99.90;;;;;;5011349;28;20224;-54
2023/12/02 08:55:46;;;;;;;75.57;27.10;;;-2.60;99.90;;;;;;5013050;28;20190;-53
2023/12/02 08:58:14;;;;;;;84.40;27.83;;;-2.50;99.90;;;;;;5011612;28;20320;-53
2023/12/02 09:00:43;;;;;;;82.07;27.57;;;-2.40;99.90;;;;;;5012740;28;20230;-52
2023/12/02 09:03:13;;;;;;;76.50;26.53;;;-2.40;99.90;;;;;;5012054;28;20237;-53
2023/12/02 09:05:41;;;;;;;75.63;26.20;;;-2.30;99.90;;;;;;5009201;28;20230;-54
2023/12/02 09:08:11;;;;;;;75.20;26.63;;;-2.20;99.90;;;;;;5005303;28;20218;-56
2023/12/02 09:10:40;;;;;;;77.93;25.53;;;-2.00;99.90;;;;;;5011965;28;20194;-51
2023/12/02 09:13:24;;;;;;;67.53;25.03;;;-2.00;99.90;;;;;;5009777;28;20226;-55
2023/12/02 09:15:53;;;;;;;69.83;24.33;;;-1.80;99.90;;;;;;5011544;28;20214;-50
2023/12/02 09:18:29;;;;;;;65.67;23.30;;;-1.70;99.90;;;;;;5011590;28;22108;-52
2023/12/02 09:20:58;;;;;;;63.10;24.23;;;-1.60;99.90;;;;;;5009807;28;20732;-51
2023/12/02 09:23:31;;;;;;;68.23;24.13;;;-1.40;99.90;;;;;;5012385;28;20221;-55
2023/12/02 09:26:01;;;;;;;64.40;23.57;;;-1.30;99.90;;;;;;5003736;28;20229;-53
2023/12/02 09:28:30;;;;;;;71.20;24.63;;;-1.20;99.90;;;;;;5010403;28;20636;-53
2023/12/02 09:31:05;;;;;;;61.50;23.70;;;-1.10;99.90;;;;;;5011893;28;20250;-52
2023/12/02 09:33:38;;;;;;;66.03;24.00;;;-1.00;99.90;;;;;;5010635;28;20699;-53
2023/12/02 09:36:09;;;;;;;59.30;23.70;;;-0.80;99.90;;;;;;5010928;28;20221;-54
2023/12/02 09:38:38;;;;;;;56.87;23.03;;;-0.70;99.90;;;;;;5011436;28;20221;-50
2023/12/02 09:41:19;;;;;;;57.10;22.73;;;-0.60;99.90;;;;;;5012610;28;20194;-54
2023/12/02 09:44:09;;;;;;;60.97;22.60;;;-0.50;99.90;;;;;;5011733;28;20533;-54
2023/12/02 09:46:44;;;;;;;56.50;23.57;;;-0.40;99.90;;;;;;5005093;28;20229;-52
2023/12/02 09:49:32;;;;;;;59.20;23.03;;;-0.20;99.90;;;;;;5013332;28;20214;-54
2023/12/02 09:52:20;;;;;;;59.70;23.03;;;0.00;99.90;;;;;;5010567;28;20213;-54
2023/12/02 09:54:59;;;;;;;49.30;21.87;;;0.20;99.90;;;;;;5013031;28;20224;-54
2023/12/02 09:57:34;;;;;;;53.43;22.20;;;0.30;99.90;;;;;;4996838;28;20229;-53
2023/12/02 10:00:09;;;;;;;55.10;22.97;;;0.50;99.90;;;;;;5013252;28;20221;-53
2023/12/02 10:02:52;;;;;;;58.77;23.40;;;0.60;99.90;;;;;;5011239;28;20227;-56
2023/12/02 10:05:21;;;;;;;56.07;24.07;;;0.80;99.90;;;;;;5012112;28;20225;-51
2023/12/02 10:08:03;;;;;;;59.67;24.53;;;0.80;99.90;;;;;;5009495;28;20214;-54
2023/12/02 10:10:42;;;;;;;57.83;24.20;;;0.90;99.90;;;;;;5008493;28;20538;-51
2023/12/02 10:13:19;;;;;;;57.70;23.77;;;1.10;99.90;;;;;;5011098;28;20274;-51
2023/12/02 10:15:49;;;;;;;52.60;22.77;;;1.30;99.90;;;;;;5007973;28;20619;-54
2023/12/02 10:18:22;;;;;;;52.47;22.77;;;1.50;99.90;;;;;;5011695;28;20600;-52
2023/12/02 10:21:01;;;;;;;52.57;24.03;;;1.70;99.90;;;;;;5010937;28;20538;-53
2023/12/02 10:23:35;;;;;;;52.53;23.93;;;1.60;98.10;;;;;;5014058;28;20304;-53
2023/12/02 10:26:14;;;;;;;57.00;24.30;;;1.60;97.00;;;;;;5008887;28;20530;-55
2023/12/02 10:28:49;;;;;;;60.10;25.10;;;1.50;98.70;;;;;;5006028;28;20200;-54
2023/12/02 10:31:25;;;;;;;55.77;23.30;;;1.50;99.90;;;;;;5015176;28;20216;-51
2023/12/02 10:34:04;;;;;;;56.17;23.83;;;1.60;99.00;;;;;;5012978;28;20648;-53
2023/12/02 10:36:34;;;;;;;53.93;24.07;;;1.50;97.20;;;;;;5009473;28;20218;-54
2023/12/02 10:39:07;;;;;;;54.23;25.30;;;1.40;95.90;;;;;;5007125;28;20563;-51
2023/12/02 10:41:51;;;;;;;58.17;26.00;;;1.50;99.90;;;;;;5005510;28;20221;-54
2023/12/02 10:44:22;;;;;;;57.33;25.43;;;1.60;99.90;;;;;;5005370;28;20229;-54
2023/12/02 10:46:51;;;;;;;59.47;24.53;;;1.70;96.70;;;;;;5010991;28;20237;-53
2023/12/02 10:49:20;;;;;;;63.47;25.17;;;1.70;96.70;;;;;;4986097;28;20240;-55
2023/12/02 10:51:51;;;;;;;55.33;24.57;;;1.80;95.10;;;;;;5008299;28;20213;-54
2023/12/02 10:54:25;;;;;;;58.37;24.90;;;1.80;95.20;;;;;;5009424;28;20237;-53
2023/12/02 10:57:05;;;;;;;64.40;25.03;;;1.90;92.40;;;;;;5008453;28;20220;-55
2023/12/02 10:59:36;;;;;;;60.00;24.87;;;1.90;93.00;;;;;;5008414;28;20226;-53
2023/12/02 11:02:24;;;;;;;60.00;25.40;;;1.80;95.90;;;;;;5008942;28;20194;-53
2023/12/02 11:05:03;;;;;;;56.30;24.03;;;1.90;95.90;;;;;;5006234;28;20651;-54
2023/12/02 11:07:34;;;;;;;58.13;23.97;;;2.00;96.20;;;;;;5003290;28;20206;-54
2023/12/02 11:10:05;;;;;;;57.93;24.57;;;2.00;92.20;;;;;;5002739;28;20214;-52
2023/12/02 11:12:42;;;;;;;53.00;22.63;;;2.00;93.20;;;;;;5003733;28;20940;-53
2023/12/02 11:15:14;;;;;;;55.43;22.83;;;2.10;93.60;;;;;;5005817;28;20236;-54
2023/12/02 11:17:44;;;;;;;55.20;22.20;;;2.20;92.10;;;;;;5004675;28;20241;-52
2023/12/02 11:20:20;;;;;;;52.80;21.73;;;2.20;85.00;;;;;;5007446;28;20297;-51
2023/12/02 11:23:10;;;;;;;49.20;20.93;;;2.20;78.20;;;;;;4990368;28;20526;-54
2023/12/02 11:25:59;;;;;;;46.90;21.37;;;2.10;75.00;;;;;;4989452;28;20194;-53
2023/12/02 11:28:37;;;;;;;48.27;20.90;;;2.20;78.40;;;;;;5007026;28;20225;-53
2023/12/02 11:31:29;;;;;;;48.43;22.13;;;2.20;81.20;;;;;;5010838;28;20225;-55
2023/12/02 11:34:12;;;;;;;48.80;21.27;;;2.30;87.30;;;;;;5006991;28;20217;-52
2023/12/02 11:36:49;;;;;;;43.43;19.53;;;2.40;83.80;;;;;;5006199;28;20229;-52
2023/12/02 11:39:27;;;;;;;42.77;19.17;;;2.60;78.10;;;;;;5009478;28;20785;-54
2023/12/02 11:41:57;;;;;;;40.43;19.17;;;2.50;61.90;;;;;;4995414;28;20232;-55
2023/12/02 11:44:36;;;;;;;40.57;18.87;;;2.60;66.40;;;;;;5017705;28;20229;-55
2023/12/02 11:47:33;;;;;;;44.80;20.03;;;2.70;66.80;;;;;;5013896;28;20240;-52
2023/12/02 11:50:21;;;;;;;44.27;20.27;;;2.70;57.90;;;;;;5012758;28;20260;-53
2023/12/02 11:53:03;;;;;;;47.23;20.27;;;2.70;66.20;;;;;;5007340;28;20205;-55
2023/12/02 11:55:38;;;;;;;42.67;19.27;;;2.80;65.40;;;;;;5013108;28;20205;-55
2023/12/02 11:58:15;;;;;;;45.53;19.07;;;2.80;59.90;;;;;;5009130;28;20240;-54
2023/12/02 12:01:02;;;;;;;42.53;18.80;;;2.70;58.90;;;;;;5010622;28;20583;-55
2023/12/02 12:03:45;;;;;;;47.03;19.73;;;2.80;55.60;;;;;;5014058;28;20690;-53
2023/12/02 12:06:48;;;;;;;40.50;18.80;;;2.70;54.80;;;;;;5012343;28;20315;-54
2023/12/02 12:09:26;;;;;;;42.97;19.33;;;2.70;60.60;;;;;;5000257;28;20236;-54
2023/12/02 12:11:57;;;;;;;44.17;19.07;;;2.70;39.20;;;;;;4990095;28;20301;-55
2023/12/02 12:14:30;;;;;;;41.83;19.43;;;2.70;43.80;;;;;;5009542;28;20222;-54
2023/12/02 12:16:59;;;;;;;45.97;20.90;;;2.70;55.70;;;;;;5009167;28;20186;-53
2023/12/02 12:19:29;;;;;;;47.77;21.60;;;2.80;49.90;;;;;;5007711;28;20186;-54
2023/12/02 12:21:57;;;;;;;50.60;20.87;;;2.80;53.60;;;;;;5003326;28;20225;-54
2023/12/02 12:24:25;;;;;;;45.17;19.30;;;2.80;51.10;;;;;;5011638;28;20779;-53
2023/12/02 12:26:54;;;;;;;44.70;19.97;;;2.80;54.70;;;;;;5004379;28;20215;-55
2023/12/02 12:29:22;;;;;;;46.00;19.47;;;2.90;54.20;;;;;;5010928;28;20232;-56
2023/12/02 12:31:51;;;;;;;39.60;20.10;;;3.00;41.10;;;;;;5012449;28;20190;-53
2023/12/02 12:34:21;;;;;;;41.80;18.97;;;3.00;50.00;;;;;;5010949;28;20730;-55
2023/12/02 12:36:50;;;;;;;40.60;18.23;;;3.10;47.10;;;;;;5011967;28;20276;-55
2023/12/02 12:39:20;;;;;;;40.20;17.97;;;3.20;49.00;;;;;;5012778;28;20318;-53
2023/12/02 12:41:49;;;;;;;37.70;17.43;;;3.20;44.60;;;;;;5012064;28;20533;-56
2023/12/02 12:44:19;;;;;;;39.37;17.77;;;3.20;30.00;;;;;;5008108;28;20228;-54
2023/12/02 12:46:48;;;;;;;35.50;16.47;;;3.20;28.80;;;;;;5013441;28;20284;-52